sensor_id;sensor_type;location;lat;lon;timestamp;pressure;altitude;pressure_sealevel;temperature;humidity
77216;BME280;66210;53.282;9.864;2023-09-19T00:00:44;99888.59;;;15.46;95.29
77216;BME280;66210;53.282;9.864;2023-09-19T00:03:14;99880.03;;;15.44;95.49
77216;BME280;66210;53.282;9.864;2023-09-19T00:05:41;99871.53;;;15.45;95.46
77216;BME280;66210;53.282;9.864;2023-09-19T00:08:10;99869.75;;;15.39;95.59
77216;BME280;66210;53.282;9.864;2023-09-19T00:10:40;99880.84;;;15.40;95.71
77216;BME280;66210;53.282;9.864;2023-09-19T00:13:08;99890.34;;;15.47;95.55
77216;BME280;66210;53.282;9.864;2023-09-19T00:15:40;99892.00;;;15.47;95.67
77216;BME280;66210;53.282;9.864;2023-09-19T00:18:08;99887.78;;;15.49;95.64
77216;BME280;66210;53.282;9.864;2023-09-19T00:20:36;99891.22;;;15.49;95.84
77216;BME280;66210;53.282;9.864;2023-09-19T00:23:03;99880.09;;;15.47;95.56
77216;BME280;66210;53.282;9.864;2023-09-19T00:25:36;99887.78;;;15.49;95.72
77216;BME280;66210;53.282;9.864;2023-09-19T00:28:04;99886.06;;;15.48;95.99
77216;BME280;66210;53.282;9.864;2023-09-19T00:30:34;99889.44;;;15.47;95.83
77216;BME280;66210;53.282;9.864;2023-09-19T00:33:00;99898.88;;;15.48;95.99
77216;BME280;66210;53.282;9.864;2023-09-19T00:35:32;99886.91;;;15.48;95.97
77216;BME280;66210;53.282;9.864;2023-09-19T00:38:00;99894.66;;;15.53;96.14
77216;BME280;66210;53.282;9.864;2023-09-19T00:40:26;99896.34;;;15.51;96.16
77216;BME280;66210;53.282;9.864;2023-09-19T00:42:57;99885.16;;;15.44;96.23
77216;BME280;66210;53.282;9.864;2023-09-19T00:45:27;99896.38;;;15.54;96.07
77216;BME280;66210;53.282;9.864;2023-09-19T00:47:55;99889.44;;;15.45;96.08
77216;BME280;66210;53.282;9.864;2023-09-19T00:50:25;99907.47;;;15.53;96.64
77216;BME280;66210;53.282;9.864;2023-09-19T00:52:54;99916.88;;;15.54;96.41
77216;BME280;66210;53.282;9.864;2023-09-19T00:55:23;99901.47;;;15.49;96.42
77216;BME280;66210;53.282;9.864;2023-09-19T00:57:51;99915.16;;;15.54;96.04
77216;BME280;66210;53.282;9.864;2023-09-19T01:00:19;99916.03;;;15.58;96.51
77216;BME280;66210;53.282;9.864;2023-09-19T01:02:47;99913.50;;;15.58;96.84
77216;BME280;66210;53.282;9.864;2023-09-19T01:05:15;99907.50;;;15.56;96.53
77216;BME280;66210;53.282;9.864;2023-09-19T01:07:43;99925.47;;;15.59;96.26
77216;BME280;66210;53.282;9.864;2023-09-19T01:10:17;99908.28;;;15.50;96.20
77216;BME280;66210;53.282;9.864;2023-09-19T01:12:57;99914.34;;;15.57;96.33
77216;BME280;66210;53.282;9.864;2023-09-19T01:15:40;99919.47;;;15.57;96.16
77216;BME280;66210;53.282;9.864;2023-09-19T01:24:05;99927.91;;;15.50;96.30
77216;BME280;66210;53.282;9.864;2023-09-19T01:27:00;99935.59;;;15.50;96.21
77216;BME280;66210;53.282;9.864;2023-09-19T01:29:42;99928.72;;;15.46;96.40
77216;BME280;66210;53.282;9.864;2023-09-19T01:32:13;99933.00;;;15.48;96.57
77216;BME280;66210;53.282;9.864;2023-09-19T01:34:56;99931.28;;;15.49;96.18
77216;BME280;66210;53.282;9.864;2023-09-19T01:37:30;99924.50;;;15.49;95.98
77216;BME280;66210;53.282;9.864;2023-09-19T01:40:01;99920.97;;;15.41;95.75
77216;BME280;66210;53.282;9.864;2023-09-19T01:42:41;99920.94;;;15.39;96.21
77216;BME280;66210;53.282;9.864;2023-09-19T01:45:21;99934.72;;;15.48;96.04
77216;BME280;66210;53.282;9.864;2023-09-19T01:47:52;99944.97;;;15.51;96.36
77216;BME280;66210;53.282;9.864;2023-09-19T01:50:31;99943.25;;;15.48;96.34
77216;BME280;66210;53.282;9.864;2023-09-19T01:53:07;99948.31;;;15.44;95.95
77216;BME280;66210;53.282;9.864;2023-09-19T01:55:42;99940.59;;;15.42;95.89
77216;BME280;66210;53.282;9.864;2023-09-19T01:58:20;99941.47;;;15.44;96.29
77216;BME280;66210;53.282;9.864;2023-09-19T02:00:49;99932.84;;;15.36;96.33
77216;BME280;66210;53.282;9.864;2023-09-19T02:03:21;99946.53;;;15.39;96.06
77216;BME280;66210;53.282;9.864;2023-09-19T02:05:52;99939.59;;;15.31;96.36
77216;BME280;66210;53.282;9.864;2023-09-19T02:08:21;99960.13;;;15.34;96.41
77216;BME280;66210;53.282;9.864;2023-09-19T02:10:52;99966.06;;;15.31;95.85
77216;BME280;66210;53.282;9.864;2023-09-19T02:13:20;99971.13;;;15.28;96.33
77216;BME280;66210;53.282;9.864;2023-09-19T02:15:48;99953.16;;;15.24;96.49
77216;BME280;66210;53.282;9.864;2023-09-19T02:18:15;99960.81;;;15.24;96.23
77216;BME280;66210;53.282;9.864;2023-09-19T02:20:42;99959.06;;;15.20;96.76
77216;BME280;66210;53.282;9.864;2023-09-19T02:23:10;99957.22;;;15.09;96.61
77216;BME280;66210;53.282;9.864;2023-09-19T02:25:37;99958.84;;;15.06;96.49
77216;BME280;66210;53.282;9.864;2023-09-19T02:28:05;99975.94;;;15.07;96.89
77216;BME280;66210;53.282;9.864;2023-09-19T02:30:32;99980.25;;;15.11;96.47
77216;BME280;66210;53.282;9.864;2023-09-19T02:33:00;99968.25;;;15.08;96.75
77216;BME280;66210;53.282;9.864;2023-09-19T02:35:28;99963.97;;;15.06;96.69
77216;BME280;66210;53.282;9.864;2023-09-19T02:37:59;99969.13;;;15.07;96.89
77216;BME280;66210;53.282;9.864;2023-09-19T02:40:25;99972.50;;;15.06;96.74
77216;BME280;66210;53.282;9.864;2023-09-19T02:42:54;99977.63;;;15.06;96.63
77216;BME280;66210;53.282;9.864;2023-09-19T02:45:21;99979.34;;;15.09;96.71
77216;BME280;66210;53.282;9.864;2023-09-19T02:47:49;99981.94;;;15.10;96.42
77216;BME280;66210;53.282;9.864;2023-09-19T02:50:16;99985.41;;;15.12;96.74
77216;BME280;66210;53.282;9.864;2023-09-19T02:52:44;99978.56;;;15.13;96.31
77216;BME280;66210;53.282;9.864;2023-09-19T02:55:12;99983.72;;;15.14;96.47
77216;BME280;66210;53.282;9.864;2023-09-19T02:57:41;99988.88;;;15.16;96.21
77216;BME280;66210;53.282;9.864;2023-09-19T03:00:10;99984.56;;;15.13;96.31
77216;BME280;66210;53.282;9.864;2023-09-19T03:02:37;99994.81;;;15.13;95.91
77216;BME280;66210;53.282;9.864;2023-09-19T03:05:05;99999.94;;;15.13;96.06
77216;BME280;66210;53.282;9.864;2023-09-19T03:07:32;99998.16;;;15.09;96.46
77216;BME280;66210;53.282;9.864;2023-09-19T03:09:59;100002.31;;;15.03;95.68
77216;BME280;66210;53.282;9.864;2023-09-19T03:12:26;99997.94;;;14.95;96.00
77216;BME280;66210;53.282;9.864;2023-09-19T03:14:53;100008.22;;;14.99;95.71
77216;BME280;66210;53.282;9.864;2023-09-19T03:17:20;100007.25;;;14.92;95.27
77216;BME280;66210;53.282;9.864;2023-09-19T03:19:48;99994.28;;;14.81;94.47
77216;BME280;66210;53.282;9.864;2023-09-19T03:22:15;100016.38;;;14.78;92.43
77216;BME280;66210;53.282;9.864;2023-09-19T03:24:42;100017.13;;;14.72;93.03
77216;BME280;66210;53.282;9.864;2023-09-19T03:27:10;100015.34;;;14.66;93.06
77216;BME280;66210;53.282;9.864;2023-09-19T03:29:37;100026.34;;;14.62;92.96
77216;BME280;66210;53.282;9.864;2023-09-19T03:32:04;100027.94;;;14.55;92.83
77216;BME280;66210;53.282;9.864;2023-09-19T03:34:31;100021.88;;;14.53;92.96
77216;BME280;66210;53.282;9.864;2023-09-19T03:36:58;100016.66;;;14.47;92.62
77216;BME280;66210;53.282;9.864;2023-09-19T03:39:24;100018.19;;;14.39;92.09
77216;BME280;66210;53.282;9.864;2023-09-19T03:41:51;100026.75;;;14.40;92.04
77216;BME280;66210;53.282;9.864;2023-09-19T03:44:18;100030.94;;;14.36;91.95
77216;BME280;66210;53.282;9.864;2023-09-19T03:46:44;100029.16;;;14.32;92.08
77216;BME280;66210;53.282;9.864;2023-09-19T03:49:11;100044.47;;;14.32;91.92
77216;BME280;66210;53.282;9.864;2023-09-19T03:51:38;100034.94;;;14.22;92.09
77216;BME280;66210;53.282;9.864;2023-09-19T03:54:06;100042.59;;;14.22;91.95
77216;BME280;66210;53.282;9.864;2023-09-19T03:56:32;100040.72;;;14.14;92.06
77216;BME280;66210;53.282;9.864;2023-09-19T03:58:59;100045.81;;;14.14;91.87
77216;BME280;66210;53.282;9.864;2023-09-19T04:01:26;100049.94;;;14.08;91.96
77216;BME280;66210;53.282;9.864;2023-09-19T04:03:54;100047.28;;;14.03;91.78
77216;BME280;66210;53.282;9.864;2023-09-19T04:06:21;100066.03;;;14.02;91.85
77216;BME280;66210;53.282;9.864;2023-09-19T04:08:48;100057.31;;;13.94;91.61
77216;BME280;66210;53.282;9.864;2023-09-19T04:11:15;100052.97;;;13.90;91.54
77216;BME280;66210;53.282;9.864;2023-09-19T04:13:41;100064.88;;;13.88;91.69
77216;BME280;66210;53.282;9.864;2023-09-19T04:16:09;100044.25;;;13.80;91.77
77216;BME280;66210;53.282;9.864;2023-09-19T04:18:37;100056.13;;;13.77;91.67
77216;BME280;66210;53.282;9.864;2023-09-19T04:21:04;100068.00;;;13.75;91.87
77216;BME280;66210;53.282;9.864;2023-09-19T04:23:32;100066.03;;;13.64;92.30
77216;BME280;66210;53.282;9.864;2023-09-19T04:25:59;100088.22;;;13.67;92.16
77216;BME280;66210;53.282;9.864;2023-09-19T04:28:26;100082.19;;;13.63;91.65
77216;BME280;66210;53.282;9.864;2023-09-19T04:30:54;100086.41;;;13.61;91.86
77216;BME280;66210;53.282;9.864;2023-09-19T04:33:22;100082.88;;;13.56;91.89
77216;BME280;66210;53.282;9.864;2023-09-19T04:35:50;100085.31;;;13.51;91.76
77216;BME280;66210;53.282;9.864;2023-09-19T04:38:20;100091.22;;;13.49;91.84
77216;BME280;66210;53.282;9.864;2023-09-19T04:40:47;100079.94;;;13.39;91.97
77216;BME280;66210;53.282;9.864;2023-09-19T04:43:14;100101.38;;;13.47;91.77
77216;BME280;66210;53.282;9.864;2023-09-19T04:45:42;100095.34;;;13.44;92.18
77216;BME280;66210;53.282;9.864;2023-09-19T04:48:09;100094.44;;;13.42;92.62
77216;BME280;66210;53.282;9.864;2023-09-19T04:50:37;100097.03;;;13.43;92.28
77216;BME280;66210;53.282;9.864;2023-09-19T04:53:05;100093.59;;;13.41;92.50
77216;BME280;66210;53.282;9.864;2023-09-19T04:55:32;100092.66;;;13.38;92.05
77216;BME280;66210;53.282;9.864;2023-09-19T04:57:59;100079.59;;;13.27;91.69
77216;BME280;66210;53.282;9.864;2023-09-19T05:00:26;100103.66;;;13.35;91.92
77216;BME280;66210;53.282;9.864;2023-09-19T05:02:57;100093.31;;;13.30;91.88
77216;BME280;66210;53.282;9.864;2023-09-19T05:05:24;100108.63;;;13.30;92.03
77216;BME280;66210;53.282;9.864;2023-09-19T05:07:52;100094.88;;;13.25;91.60
77216;BME280;66210;53.282;9.864;2023-09-19T05:10:22;100094.78;;;13.22;92.43
77216;BME280;66210;53.282;9.864;2023-09-19T05:12:52;100112.69;;;13.24;92.16
77216;BME280;66210;53.282;9.864;2023-09-19T05:15:19;100105.88;;;13.24;92.26
77216;BME280;66210;53.282;9.864;2023-09-19T05:17:50;100116.94;;;13.25;92.21
77216;BME280;66210;53.282;9.864;2023-09-19T05:20:22;100121.19;;;13.23;91.95
77216;BME280;66210;53.282;9.864;2023-09-19T05:23:06;100122.84;;;13.22;92.49
77216;BME280;66210;53.282;9.864;2023-09-19T05:25:39;100113.38;;;13.18;92.33
77216;BME280;66210;53.282;9.864;2023-09-19T05:28:07;100127.88;;;13.19;92.72
77216;BME280;66210;53.282;9.864;2023-09-19T05:30:35;100138.13;;;13.21;92.23
77216;BME280;66210;53.282;9.864;2023-09-19T05:33:05;100139.72;;;13.17;92.86
77216;BME280;66210;53.282;9.864;2023-09-19T05:35:32;100130.25;;;13.12;92.62
77216;BME280;66210;53.282;9.864;2023-09-19T05:37:59;100132.03;;;13.16;92.31
77216;BME280;66210;53.282;9.864;2023-09-19T05:40:26;100135.41;;;13.15;91.91
77216;BME280;66210;53.282;9.864;2023-09-19T05:42:54;100145.69;;;13.18;91.92
77216;BME280;66210;53.282;9.864;2023-09-19T05:45:20;100123.34;;;13.09;92.83
77216;BME280;66210;53.282;9.864;2023-09-19T05:47:50;100145.81;;;13.22;92.60
77216;BME280;66210;53.282;9.864;2023-09-19T05:50:18;100129.47;;;13.16;92.23
77216;BME280;66210;53.282;9.864;2023-09-19T05:52:52;100143.50;;;13.30;92.30
77216;BME280;66210;53.282;9.864;2023-09-19T05:55:19;100129.09;;;13.32;92.02
77216;BME280;66210;53.282;9.864;2023-09-19T05:57:51;100152.41;;;13.46;91.65
77216;BME280;66210;53.282;9.864;2023-09-19T06:00:21;100145.75;;;13.52;92.48
77216;BME280;66210;53.282;9.864;2023-09-19T06:02:57;100136.50;;;13.58;92.18
77216;BME280;66210;53.282;9.864;2023-09-19T06:05:25;100146.13;;;13.68;91.88
77216;BME280;66210;53.282;9.864;2023-09-19T06:07:58;100157.34;;;13.75;92.31
77216;BME280;66210;53.282;9.864;2023-09-19T06:10:35;100147.25;;;13.81;92.13
77216;BME280;66210;53.282;9.864;2023-09-19T06:13:02;100146.50;;;13.85;91.69
77216;BME280;66210;53.282;9.864;2023-09-19T06:15:32;100144.06;;;13.89;91.83
77216;BME280;66210;53.282;9.864;2023-09-19T06:18:00;100152.72;;;13.95;92.00
77216;BME280;66210;53.282;9.864;2023-09-19T06:20:28;100151.13;;;14.00;92.10
77216;BME280;66210;53.282;9.864;2023-09-19T06:22:56;100153.03;;;14.10;91.73
77216;BME280;66210;53.282;9.864;2023-09-19T06:25:23;100154.81;;;14.14;91.56
77216;BME280;66210;53.282;9.864;2023-09-19T06:27:51;100162.69;;;14.22;91.13
77216;BME280;66210;53.282;9.864;2023-09-19T06:30:21;100155.00;;;14.22;91.50
77216;BME280;66210;53.282;9.864;2023-09-19T06:32:49;100162.88;;;14.31;91.16
77216;BME280;66210;53.282;9.864;2023-09-19T06:35:16;100162.03;;;14.30;91.18
77216;BME280;66210;53.282;9.864;2023-09-19T06:37:43;100161.22;;;14.34;91.32
77216;BME280;66210;53.282;9.864;2023-09-19T06:40:11;100150.16;;;14.34;91.41
77216;BME280;66210;53.282;9.864;2023-09-19T06:42:45;100161.41;;;14.44;91.53
77216;BME280;66210;53.282;9.864;2023-09-19T06:45:13;100152.09;;;14.46;90.96
77216;BME280;66210;53.282;9.864;2023-09-19T06:47:45;100150.38;;;14.45;91.01
77216;BME280;66210;53.282;9.864;2023-09-19T06:50:12;100143.50;;;14.42;90.16
77216;BME280;66210;53.282;9.864;2023-09-19T06:52:42;100159.91;;;14.52;90.73
77216;BME280;66210;53.282;9.864;2023-09-19T06:55:12;100158.31;;;14.55;90.91
77216;BME280;66210;53.282;9.864;2023-09-19T06:57:39;100155.69;;;14.54;90.46
77216;BME280;66210;53.282;9.864;2023-09-19T07:00:11;100155.00;;;14.60;90.67
77216;BME280;66210;53.282;9.864;2023-09-19T07:03:00;100161.00;;;14.63;90.38
77216;BME280;66210;53.282;9.864;2023-09-19T07:05:28;100171.28;;;14.65;90.22
77216;BME280;66210;53.282;9.864;2023-09-19T07:07:55;100168.69;;;14.63;90.11
77216;BME280;66210;53.282;9.864;2023-09-19T07:10:22;100166.97;;;14.62;88.53
77216;BME280;66210;53.282;9.864;2023-09-19T07:13:03;100169.44;;;14.59;89.44
77216;BME280;66210;53.282;9.864;2023-09-19T07:15:32;100184.91;;;14.65;89.63
77216;BME280;66210;53.282;9.864;2023-09-19T07:18:06;100173.75;;;14.60;89.29
77216;BME280;66210;53.282;9.864;2023-09-19T07:20:33;100189.88;;;14.58;89.06
77216;BME280;66210;53.282;9.864;2023-09-19T07:23:03;100194.16;;;14.59;88.65
77216;BME280;66210;53.282;9.864;2023-09-19T07:25:35;100202.72;;;14.61;88.92
77216;BME280;66210;53.282;9.864;2023-09-19T07:28:17;100218.16;;;14.65;88.64
77216;BME280;66210;53.282;9.864;2023-09-19T07:30:49;100201.78;;;14.55;89.07
77216;BME280;66210;53.282;9.864;2023-09-19T07:33:16;100201.88;;;14.62;88.94
77216;BME280;66210;53.282;9.864;2023-09-19T07:35:46;100205.41;;;14.68;88.98
77216;BME280;66210;53.282;9.864;2023-09-19T07:38:14;100212.38;;;14.74;88.55
77216;BME280;66210;53.282;9.864;2023-09-19T07:40:41;100218.53;;;14.84;87.84
77216;BME280;66210;53.282;9.864;2023-09-19T07:43:07;100198.06;;;14.84;87.46
77216;BME280;66210;53.282;9.864;2023-09-19T07:45:35;100206.59;;;14.83;86.81
77216;BME280;66210;53.282;9.864;2023-09-19T07:48:03;100205.69;;;14.81;87.38
77216;BME280;66210;53.282;9.864;2023-09-19T07:50:33;100227.13;;;14.87;87.21
77216;BME280;66210;53.282;9.864;2023-09-19T07:53:03;100209.94;;;14.80;86.86
77216;BME280;66210;53.282;9.864;2023-09-19T07:55:32;100204.03;;;14.83;87.27
77216;BME280;66210;53.282;9.864;2023-09-19T07:58:01;100213.50;;;14.88;86.20
77216;BME280;66210;53.282;9.864;2023-09-19T08:00:30;100220.41;;;14.92;86.57
77216;BME280;66210;53.282;9.864;2023-09-19T08:02:59;100208.66;;;15.01;86.77
77216;BME280;66210;53.282;9.864;2023-09-19T08:05:34;100208.78;;;15.07;85.95
77216;BME280;66210;53.282;9.864;2023-09-19T08:08:04;100214.78;;;15.10;85.93
77216;BME280;66210;53.282;9.864;2023-09-19T08:10:36;100213.00;;;15.05;84.05
77216;BME280;66210;53.282;9.864;2023-09-19T08:13:08;100218.06;;;15.03;85.16
77216;BME280;66210;53.282;9.864;2023-09-19T08:16:04;100217.19;;;15.01;85.47
77216;BME280;66210;53.282;9.864;2023-09-19T08:18:32;100238.63;;;15.08;85.02
77216;BME280;66210;53.282;9.864;2023-09-19T08:21:06;100236.97;;;15.10;84.69
77216;BME280;66210;53.282;9.864;2023-09-19T08:23:41;100239.53;;;15.10;84.54
77216;BME280;66210;53.282;9.864;2023-09-19T08:26:08;100221.47;;;15.02;84.37
77216;BME280;66210;53.282;9.864;2023-09-19T08:28:43;100220.59;;;15.00;84.22
77216;BME280;66210;53.282;9.864;2023-09-19T08:31:10;100218.06;;;15.03;84.51
77216;BME280;66210;53.282;9.864;2023-09-19T08:33:39;100223.19;;;15.03;83.37
77216;BME280;66210;53.282;9.864;2023-09-19T08:36:07;100230.22;;;15.13;83.98
77216;BME280;66210;53.282;9.864;2023-09-19T08:38:36;100226.81;;;15.14;83.74
77216;BME280;66210;53.282;9.864;2023-09-19T08:41:07;100222.63;;;15.20;83.65
77216;BME280;66210;53.282;9.864;2023-09-19T08:43:35;100221.09;;;15.28;83.59
77216;BME280;66210;53.282;9.864;2023-09-19T08:46:12;100227.34;;;15.44;83.65
77216;BME280;66210;53.282;9.864;2023-09-19T08:48:46;100218.91;;;15.48;82.07
77216;BME280;66210;53.282;9.864;2023-09-19T08:51:38;100237.19;;;15.69;81.63
77216;BME280;66210;53.282;9.864;2023-09-19T08:54:07;100236.53;;;15.79;81.22
77216;BME280;66210;53.282;9.864;2023-09-19T08:56:35;100219.59;;;15.88;81.16
77216;BME280;66210;53.282;9.864;2023-09-19T08:59:04;100227.53;;;16.05;80.47
77216;BME280;66210;53.282;9.864;2023-09-19T09:01:34;100217.28;;;16.03;79.49
77216;BME280;66210;53.282;9.864;2023-09-19T09:04:08;100232.72;;;16.08;78.06
77216;BME280;66210;53.282;9.864;2023-09-19T09:06:36;100243.06;;;16.14;79.34
77216;BME280;66210;53.282;9.864;2023-09-19T09:09:04;100230.16;;;16.09;78.17
77216;BME280;66210;53.282;9.864;2023-09-19T09:11:33;100230.25;;;16.12;77.85
77216;BME280;66210;53.282;9.864;2023-09-19T09:14:00;100234.53;;;16.15;77.50
77216;BME280;66210;53.282;9.864;2023-09-19T09:16:29;100219.09;;;16.12;73.66
77216;BME280;66210;53.282;9.864;2023-09-19T09:18:56;100236.31;;;16.20;75.55
77216;BME280;66210;53.282;9.864;2023-09-19T09:21:27;100244.97;;;16.27;75.40
77216;BME280;66210;53.282;9.864;2023-09-19T09:23:54;100245.03;;;16.30;75.63
77216;BME280;66210;53.282;9.864;2023-09-19T09:29:03;100238.31;;;16.40;73.12
77216;BME280;66210;53.282;9.864;2023-09-19T09:31:30;100228.97;;;16.45;73.33
77216;BME280;66210;53.282;9.864;2023-09-19T09:33:58;100231.69;;;16.56;72.90
77216;BME280;66210;53.282;9.864;2023-09-19T09:36:39;100234.34;;;16.62;73.19
77216;BME280;66210;53.282;9.864;2023-09-19T09:39:08;100243.78;;;16.65;71.58
77216;BME280;66210;53.282;9.864;2023-09-19T09:41:52;100246.44;;;16.72;73.06
77216;BME280;66210;53.282;9.864;2023-09-19T09:44:19;100236.25;;;16.78;73.74
77216;BME280;66210;53.282;9.864;2023-09-19T09:46:47;100252.75;;;16.93;73.20
77216;BME280;66210;53.282;9.864;2023-09-19T09:49:25;100253.66;;;16.99;71.24
77216;BME280;66210;53.282;9.864;2023-09-19T09:54:37;100258.09;;;17.13;70.62
77216;BME280;66210;53.282;9.864;2023-09-19T09:57:09;100237.66;;;17.20;69.90
77216;BME280;66210;53.282;9.864;2023-09-19T09:59:52;100254.03;;;17.32;67.79
77216;BME280;66210;53.282;9.864;2023-09-19T10:02:26;100257.50;;;17.37;69.04
77216;BME280;66210;53.282;9.864;2023-09-19T10:04:57;100259.25;;;17.39;69.03
77216;BME280;66210;53.282;9.864;2023-09-19T10:07:50;100265.16;;;17.32;70.28
77216;BME280;66210;53.282;9.864;2023-09-19T10:10:33;100272.75;;;17.20;69.34
77216;BME280;66210;53.282;9.864;2023-09-19T10:13:10;100273.44;;;17.08;69.58
77216;BME280;66210;53.282;9.864;2023-09-19T10:15:43;100267.44;;;17.08;70.84
77216;BME280;66210;53.282;9.864;2023-09-19T10:18:19;100274.25;;;17.06;70.79
77216;BME280;66210;53.282;9.864;2023-09-19T10:20:48;100271.63;;;16.99;71.45
77216;BME280;66210;53.282;9.864;2023-09-19T10:23:18;100269.84;;;16.94;71.23
77216;BME280;66210;53.282;9.864;2023-09-19T10:25:50;100270.72;;;16.93;71.39
77216;BME280;66210;53.282;9.864;2023-09-19T10:28:18;100263.88;;;16.95;71.88
77216;BME280;66210;53.282;9.864;2023-09-19T10:30:51;100274.19;;;16.99;72.46
77216;BME280;66210;53.282;9.864;2023-09-19T10:33:23;100276.75;;;16.98;72.28
77216;BME280;66210;53.282;9.864;2023-09-19T10:35:54;100275.03;;;16.98;71.30
77216;BME280;66210;53.282;9.864;2023-09-19T10:38:24;100278.53;;;17.02;71.48
77216;BME280;66210;53.282;9.864;2023-09-19T10:40:53;100270.88;;;17.08;70.79
77216;BME280;66210;53.282;9.864;2023-09-19T10:43:25;100275.25;;;17.15;70.47
77216;BME280;66210;53.282;9.864;2023-09-19T10:45:53;100270.13;;;17.15;70.70
77216;BME280;66210;53.282;9.864;2023-09-19T10:48:23;100285.59;;;17.20;71.09
77216;BME280;66210;53.282;9.864;2023-09-19T10:51:11;100280.44;;;17.20;68.44
77216;BME280;66210;53.282;9.864;2023-09-19T10:56:10;100282.97;;;17.18;71.15
77216;BME280;66210;53.282;9.864;2023-09-19T10:58:44;100279.66;;;17.27;71.07
77216;BME280;66210;53.282;9.864;2023-09-19T11:01:12;100283.97;;;17.30;70.98
77216;BME280;66210;53.282;9.864;2023-09-19T11:03:39;100275.38;;;17.28;72.10
77216;BME280;66210;53.282;9.864;2023-09-19T11:06:15;100284.81;;;17.29;71.25
77216;BME280;66210;53.282;9.864;2023-09-19T11:08:55;100293.31;;;17.23;70.30
77216;BME280;66210;53.282;9.864;2023-09-19T11:11:46;100292.31;;;17.12;70.51
77216;BME280;66210;53.282;9.864;2023-09-19T11:30:38;100286.31;;;17.11;70.10
77216;BME280;66210;53.282;9.864;2023-09-19T11:36:10;100270.22;;;17.24;70.25
77216;BME280;66210;53.282;9.864;2023-09-19T11:43:48;100271.38;;;17.51;67.94
77216;BME280;66210;53.282;9.864;2023-09-19T11:46:16;100265.44;;;17.60;69.11
77216;BME280;66210;53.282;9.864;2023-09-19T11:48:49;100259.47;;;17.64;68.40
77216;BME280;66210;53.282;9.864;2023-09-19T11:51:20;100258.66;;;17.66;68.17
77216;BME280;66210;53.282;9.864;2023-09-19T11:53:55;100255.22;;;17.64;67.36
77216;BME280;66210;53.282;9.864;2023-09-19T11:56:23;100251.78;;;17.65;68.06
77216;BME280;66210;53.282;9.864;2023-09-19T11:58:53;100249.22;;;17.62;67.11
77216;BME280;66210;53.282;9.864;2023-09-19T12:01:30;100257.78;;;17.63;66.80
77216;BME280;66210;53.282;9.864;2023-09-19T12:03:58;100250.09;;;17.66;66.61
77216;BME280;66210;53.282;9.864;2023-09-19T12:06:27;100243.28;;;17.70;66.16
77216;BME280;66210;53.282;9.864;2023-09-19T12:08:56;100243.28;;;17.73;67.24
77216;BME280;66210;53.282;9.864;2023-09-19T12:11:30;100237.34;;;17.80;66.62
77216;BME280;66210;53.282;9.864;2023-09-19T12:14:01;100256.31;;;17.88;66.68
77216;BME280;66210;53.282;9.864;2023-09-19T12:16:29;100237.56;;;17.98;67.07
77216;BME280;66210;53.282;9.864;2023-09-19T12:19:18;100229.84;;;18.00;65.76
77216;BME280;66210;53.282;9.864;2023-09-19T12:21:55;100243.66;;;18.13;66.43
77216;BME280;66210;53.282;9.864;2023-09-19T12:24:27;100248.03;;;18.26;66.39
77216;BME280;66210;53.282;9.864;2023-09-19T12:27:01;100242.94;;;18.35;63.64
77216;BME280;66210;53.282;9.864;2023-09-19T12:29:32;100246.38;;;18.37;63.63
77216;BME280;66210;53.282;9.864;2023-09-19T12:32:08;100245.50;;;18.34;64.52
77216;BME280;66210;53.282;9.864;2023-09-19T12:34:35;100246.28;;;18.22;64.09
77216;BME280;66210;53.282;9.864;2023-09-19T12:37:12;100253.13;;;18.18;64.25
77216;BME280;66210;53.282;9.864;2023-09-19T12:39:43;100251.34;;;18.11;64.92
77216;BME280;66210;53.282;9.864;2023-09-19T12:42:23;100245.31;;;18.03;64.66
77216;BME280;66210;53.282;9.864;2023-09-19T12:44:51;100248.63;;;17.91;64.83
77216;BME280;66210;53.282;9.864;2023-09-19T12:47:28;100236.59;;;17.85;64.72
77216;BME280;66210;53.282;9.864;2023-09-19T12:50:10;100252.94;;;17.95;64.97
77216;BME280;66210;53.282;9.864;2023-09-19T12:52:48;100247.00;;;18.01;64.74
77216;BME280;66210;53.282;9.864;2023-09-19T13:00:34;100231.75;;;18.25;64.43
77216;BME280;66210;53.282;9.864;2023-09-19T13:03:28;100240.31;;;18.29;64.97
77216;BME280;66210;53.282;9.864;2023-09-19T13:05:59;100236.00;;;18.25;64.37
77216;BME280;66210;53.282;9.864;2023-09-19T13:11:12;100226.59;;;18.28;65.10
77216;BME280;66210;53.282;9.864;2023-09-19T13:13:44;100218.06;;;18.30;64.67
77216;BME280;66210;53.282;9.864;2023-09-19T13:16:17;100225.78;;;18.36;64.24
77216;BME280;66210;53.282;9.864;2023-09-19T13:18:50;100224.88;;;18.29;63.70
77216;BME280;66210;53.282;9.864;2023-09-19T13:21:31;100226.66;;;18.35;63.29
77216;BME280;66210;53.282;9.864;2023-09-19T13:24:23;100217.25;;;18.40;62.59
77216;BME280;66210;53.282;9.864;2023-09-19T13:26:54;100213.84;;;18.45;62.73
77216;BME280;66210;53.282;9.864;2023-09-19T13:29:22;100208.75;;;18.50;63.11
77216;BME280;66210;53.282;9.864;2023-09-19T13:31:50;100208.75;;;18.53;63.60
77216;BME280;66210;53.282;9.864;2023-09-19T13:34:19;100207.84;;;18.49;64.09
77216;BME280;66210;53.282;9.864;2023-09-19T13:36:47;100206.94;;;18.38;62.94
77216;BME280;66210;53.282;9.864;2023-09-19T13:39:16;100218.88;;;18.28;61.69
77216;BME280;66210;53.282;9.864;2023-09-19T13:41:47;100208.56;;;18.22;62.50
77216;BME280;66210;53.282;9.864;2023-09-19T13:44:14;100193.09;;;18.15;62.46
77216;BME280;66210;53.282;9.864;2023-09-19T13:46:43;100193.06;;;18.10;62.52
77216;BME280;66210;53.282;9.864;2023-09-19T13:49:14;100182.75;;;18.07;62.99
77216;BME280;66210;53.282;9.864;2023-09-19T13:51:41;100181.06;;;18.07;63.58
77216;BME280;66210;53.282;9.864;2023-09-19T13:54:11;100179.34;;;18.08;63.81
77216;BME280;66210;53.282;9.864;2023-09-19T13:56:41;100178.50;;;18.12;63.78